createdAt,value
2022-09-03T00:01:50.455Z,61.28
2022-09-03T00:04:30.333Z,61.05
2022-09-03T00:07:03.206Z,59.78
2022-09-03T00:09:35.947Z,60.08
2022-09-03T00:12:09.347Z,60.26
2022-09-03T00:14:39.512Z,59.66
2022-09-03T00:17:11.044Z,60.67
2022-09-03T00:19:43.793Z,61.24
2022-09-03T00:22:16.635Z,61.19
2022-09-03T00:24:45.229Z,61.00
2022-09-03T00:27:15.346Z,60.85
2022-09-03T00:29:49.079Z,60.66
2022-09-03T00:32:18.148Z,60.96
2022-09-03T00:34:50.950Z,60.98
2022-09-03T00:37:18.786Z,61.06
2022-09-03T00:39:45.413Z,61.17
2022-09-03T00:42:29.774Z,61.38
2022-09-03T00:45:08.887Z,61.54
2022-09-03T00:47:46.011Z,61.48
2022-09-03T00:50:18.889Z,61.71
2022-09-03T00:52:56.574Z,60.67
2022-09-03T00:55:32.919Z,60.49
2022-09-03T00:58:18.429Z,60.03
2022-09-03T01:00:45.266Z,60.09
2022-09-03T01:03:17.159Z,61.01
2022-09-03T01:06:05.538Z,59.35
2022-09-03T01:08:51.669Z,61.85
2022-09-03T01:11:27.493Z,61.43
2022-09-03T01:14:02.777Z,61.39
2022-09-03T01:16:35.226Z,61.31
2022-09-03T01:19:11.819Z,61.39
2022-09-03T01:22:04.828Z,61.34
2022-09-03T01:24:52.152Z,61.45
2022-09-03T01:27:32.252Z,61.71
2022-09-03T01:30:04.323Z,62.01
2022-09-03T01:32:40.045Z,62.03
2022-09-03T01:35:14.867Z,61.93
2022-09-03T01:37:53.629Z,62.76
2022-09-03T01:40:30.858Z,60.27
2022-09-03T01:43:14.441Z,60.25
2022-09-03T01:45:51.628Z,59.53
2022-09-03T01:48:37.209Z,59.81
2022-09-03T01:51:14.687Z,60.30
2022-09-03T01:54:00.317Z,60.80
2022-09-03T01:56:41.812Z,62.03
2022-09-03T01:59:15.371Z,61.85
2022-09-03T02:01:49.324Z,61.57
2022-09-03T02:04:19.607Z,61.60
2022-09-03T02:06:47.166Z,61.44
2022-09-03T02:09:13.767Z,61.73
2022-09-03T02:11:41.667Z,61.81
2022-09-03T02:14:08.384Z,62.10
2022-09-03T02:16:35.378Z,61.97
2022-09-03T02:19:05.990Z,62.11
2022-09-03T02:21:35.603Z,62.45
2022-09-03T02:24:04.076Z,62.45
2022-09-03T02:26:30.776Z,62.08
2022-09-03T02:28:57.992Z,61.59
2022-09-03T02:31:25.012Z,59.89
2022-09-03T02:33:51.711Z,60.01
2022-09-03T02:36:27.087Z,59.86
2022-09-03T02:38:54.285Z,59.86
2022-09-03T02:41:20.938Z,59.78
2022-09-03T02:43:51.408Z,59.54
2022-09-03T02:46:21.500Z,61.95
2022-09-03T02:48:48.139Z,61.63
2022-09-03T02:51:14.705Z,61.86
2022-09-03T02:53:42.976Z,61.80
2022-09-03T02:56:09.715Z,61.89
2022-09-03T02:58:36.333Z,62.00
2022-09-03T03:01:03.277Z,62.07
2022-09-03T03:03:30.060Z,61.97
2022-09-03T03:05:59.789Z,62.21
2022-09-03T03:08:27.896Z,62.18
2022-09-03T03:10:58.235Z,62.24
2022-09-03T03:13:25.157Z,62.46
2022-09-03T03:15:51.686Z,62.11
2022-09-03T03:18:18.340Z,60.50
2022-09-03T03:20:44.844Z,60.68
2022-09-03T03:23:11.393Z,61.81
2022-09-03T03:25:39.171Z,60.40
2022-09-03T03:28:08.045Z,60.10
2022-09-03T03:30:37.277Z,60.75
2022-09-03T03:33:03.879Z,62.18
2022-09-03T03:35:30.482Z,61.84
2022-09-03T03:37:57.990Z,61.47
2022-09-03T03:40:25.012Z,61.41
2022-09-03T03:42:51.738Z,61.33
2022-09-03T03:45:19.810Z,61.51
2022-09-03T03:47:46.484Z,61.74
2022-09-03T03:50:13.027Z,61.62
2022-09-03T03:52:39.510Z,61.90
2022-09-03T03:55:06.658Z,61.99
2022-09-03T03:57:33.184Z,62.17
2022-09-03T03:59:59.985Z,62.15
2022-09-03T04:02:27.847Z,62.22
2022-09-03T04:04:54.447Z,61.95
2022-09-03T04:07:20.979Z,61.52
2022-09-03T04:09:48.309Z,60.44
2022-09-03T04:12:14.891Z,59.77
2022-09-03T04:14:41.422Z,60.24
2022-09-03T04:17:07.959Z,61.52
2022-09-03T04:19:35.734Z,59.97
2022-09-03T04:22:02.257Z,62.35
2022-09-03T04:24:28.819Z,62.00
2022-09-03T04:26:55.349Z,61.60
2022-09-03T04:29:21.892Z,61.81
2022-09-03T04:31:48.514Z,61.51
2022-09-03T04:34:15.021Z,61.82
2022-09-03T04:36:42.836Z,61.85
2022-09-03T04:39:09.345Z,61.95
2022-09-03T04:41:35.888Z,62.12
2022-09-03T04:44:02.940Z,62.15
2022-09-03T04:46:29.835Z,62.48
2022-09-03T04:48:56.410Z,62.42
2022-09-03T04:51:25.391Z,63.37
2022-09-03T04:53:56.454Z,61.02
2022-09-03T04:56:24.974Z,60.29
2022-09-03T04:58:55.810Z,60.11
2022-09-03T05:01:24.467Z,60.47
2022-09-03T05:03:51.176Z,59.78
2022-09-03T05:06:18.443Z,60.58
2022-09-03T05:08:48.101Z,59.98
2022-09-03T05:11:16.745Z,62.14
2022-09-03T05:13:43.667Z,62.26
2022-09-03T05:16:11.537Z,62.23
2022-09-03T05:18:38.167Z,62.00
2022-09-03T05:21:06.748Z,62.11
2022-09-03T05:23:37.788Z,62.22
2022-09-03T05:26:07.299Z,62.18
2022-09-03T05:28:40.694Z,62.59
2022-09-03T05:31:08.835Z,62.61
2022-09-03T05:33:36.617Z,62.65
2022-09-03T05:36:05.524Z,62.68
2022-09-03T05:38:32.314Z,63.33
2022-09-03T05:40:59.063Z,61.14
2022-09-03T05:43:25.604Z,61.14
2022-09-03T05:45:57.440Z,60.51
2022-09-03T05:48:24.270Z,61.16
2022-09-03T05:50:59.250Z,61.43
2022-09-03T05:53:25.809Z,60.02
2022-09-03T05:55:55.652Z,62.87
2022-09-03T05:58:22.213Z,62.71
2022-09-03T06:00:48.715Z,62.45
2022-09-03T06:03:16.692Z,62.58
2022-09-03T06:05:50.279Z,62.41
2022-09-03T06:08:16.868Z,62.77
2022-09-03T06:10:45.013Z,62.96
2022-09-03T06:13:11.735Z,63.08
2022-09-03T06:15:38.616Z,63.19
2022-09-03T06:18:05.706Z,63.00
2022-09-03T06:20:36.994Z,63.16
2022-09-03T06:23:04.040Z,63.49
2022-09-03T06:25:30.550Z,61.48
2022-09-03T06:27:57.105Z,60.97
2022-09-03T06:30:23.635Z,61.03
2022-09-03T06:32:50.536Z,60.57
2022-09-03T06:35:17.036Z,60.71
2022-09-03T06:37:45.068Z,61.61
2022-09-03T06:40:11.929Z,59.93
2022-09-03T06:42:38.488Z,59.86
2022-09-03T06:45:05.919Z,62.97
2022-09-03T06:47:38.603Z,62.62
2022-09-03T06:50:05.904Z,62.77
2022-09-03T06:52:32.504Z,62.73
2022-09-03T06:55:00.455Z,62.72
2022-09-03T06:57:26.969Z,63.00
2022-09-03T06:59:53.459Z,63.03
2022-09-03T07:02:20.020Z,63.12
2022-09-03T07:04:46.624Z,62.99
2022-09-03T07:07:14.869Z,63.30
2022-09-03T07:09:45.056Z,63.45
2022-09-03T07:12:15.619Z,64.15
2022-09-03T07:14:42.127Z,61.90
2022-09-03T07:17:09.458Z,61.34
2022-09-03T07:19:35.980Z,60.71
2022-09-03T07:22:02.453Z,60.54
2022-09-03T07:24:29.035Z,60.43
2022-09-03T07:26:55.567Z,60.17
2022-09-03T07:29:23.594Z,59.80
2022-09-03T07:31:51.654Z,59.84
2022-09-03T07:34:18.731Z,62.41
2022-09-03T07:36:48.954Z,63.05
2022-09-03T07:39:16.915Z,62.95
2022-09-03T07:41:44.003Z,63.10
2022-09-03T07:44:10.728Z,63.01
2022-09-03T07:46:38.740Z,63.19
2022-09-03T07:49:06.151Z,63.12
2022-09-03T07:51:34.439Z,63.29
2022-09-03T07:54:03.111Z,63.23
2022-09-03T07:56:29.763Z,63.20
2022-09-03T07:58:56.325Z,63.12
2022-09-03T08:01:24.748Z,63.28
2022-09-03T08:03:53.376Z,62.39
2022-09-03T08:06:23.158Z,61.80
2022-09-03T08:08:54.477Z,61.29
2022-09-03T08:11:21.182Z,60.66
2022-09-03T08:13:49.602Z,60.35
2022-09-03T08:16:18.069Z,60.14
2022-09-03T08:18:45.186Z,59.86
2022-09-03T08:21:14.939Z,59.50
2022-09-03T08:23:42.940Z,59.43
2022-09-03T08:26:10.202Z,61.79
2022-09-03T08:28:37.313Z,62.12
2022-09-03T08:31:06.417Z,62.02
2022-09-03T08:33:33.166Z,62.33
2022-09-03T08:35:59.676Z,62.63
2022-09-03T08:38:27.544Z,63.37
2022-09-03T08:40:54.076Z,63.81
2022-09-03T08:43:20.660Z,64.17
2022-09-03T08:45:47.203Z,64.22
2022-09-03T08:48:20.745Z,64.67
2022-09-03T08:50:52.258Z,64.69
2022-09-03T08:53:26.521Z,64.81
2022-09-03T08:55:59.820Z,63.83
2022-09-03T08:58:28.160Z,62.40
2022-09-03T09:01:00.703Z,61.74
2022-09-03T09:03:43.482Z,61.24
2022-09-03T09:06:19.842Z,61.11
2022-09-03T09:08:58.926Z,60.98
2022-09-03T09:11:40.117Z,60.38
2022-09-03T09:14:17.500Z,60.54
2022-09-03T09:16:50.580Z,64.15
2022-09-03T09:19:33.382Z,64.02
2022-09-03T09:22:03.160Z,63.96
2022-09-03T09:24:39.957Z,63.81
2022-09-03T09:27:10.806Z,64.09
2022-09-03T09:29:41.347Z,64.36
2022-09-03T09:32:10.311Z,64.31
2022-09-03T09:34:38.451Z,63.98
2022-09-03T09:37:10.133Z,64.06
2022-09-03T09:39:37.289Z,64.13
2022-09-03T09:42:09.329Z,64.19
2022-09-03T09:44:36.738Z,65.35
2022-09-03T09:47:06.298Z,62.62
2022-09-03T09:49:35.892Z,62.02
2022-09-03T09:52:07.613Z,63.13
2022-09-03T09:54:34.198Z,61.35
2022-09-03T09:57:02.681Z,61.49
2022-09-03T09:59:31.300Z,61.06
2022-09-03T10:02:22.281Z,62.09
2022-09-03T10:04:49.813Z,62.90
2022-09-03T10:07:23.260Z,64.80
2022-09-03T10:09:59.603Z,64.95
2022-09-03T10:12:30.225Z,64.58
2022-09-03T10:15:04.820Z,64.42
2022-09-03T10:17:49.187Z,64.70
2022-09-03T10:20:22.618Z,64.57
2022-09-03T10:22:56.938Z,65.13
2022-09-03T10:25:29.064Z,64.72
2022-09-03T10:27:56.934Z,65.12
2022-09-03T10:30:29.785Z,65.02
2022-09-03T10:33:07.995Z,65.38
2022-09-03T10:35:42.719Z,65.66
2022-09-03T10:38:17.611Z,63.13
2022-09-03T10:40:55.212Z,62.62
2022-09-03T10:43:38.904Z,62.21
2022-09-03T10:46:11.580Z,61.94
2022-09-03T10:48:50.040Z,61.46
2022-09-03T10:51:19.778Z,61.60
2022-09-03T10:54:02.126Z,61.13
2022-09-03T10:56:37.101Z,60.92
2022-09-03T10:59:16.491Z,64.65
2022-09-03T11:01:52.501Z,64.97
2022-09-03T11:04:29.534Z,65.09
2022-09-03T11:07:03.227Z,65.34
2022-09-03T11:09:36.359Z,65.23
2022-09-03T11:12:07.856Z,65.18
2022-09-03T11:14:38.492Z,64.93
2022-09-03T11:17:10.603Z,65.07
2022-09-03T11:19:45.975Z,64.90
2022-09-03T11:22:13.544Z,64.55
2022-09-03T11:24:45.960Z,65.02
2022-09-03T11:27:26.186Z,63.60
2022-09-03T11:29:59.829Z,63.47
2022-09-03T11:32:55.591Z,62.33
2022-09-03T11:35:27.184Z,62.11
2022-09-03T11:37:57.894Z,61.45
2022-09-03T11:40:32.416Z,61.25
2022-09-03T11:43:07.189Z,61.00
2022-09-03T11:45:36.530Z,60.36
2022-09-03T11:48:17.900Z,60.48
2022-09-03T11:50:53.470Z,60.36
2022-09-03T11:53:25.946Z,61.60
2022-09-03T11:55:54.765Z,63.48
2022-09-03T11:58:25.718Z,63.25
2022-09-03T12:00:52.679Z,63.63
2022-09-03T12:03:25.972Z,63.54
2022-09-03T12:06:09.386Z,63.56
2022-09-03T12:08:52.385Z,63.56
2022-09-03T12:11:34.124Z,63.35
2022-09-03T12:14:12.996Z,63.48
2022-09-03T12:16:50.315Z,63.70
2022-09-03T12:19:26.472Z,63.64
2022-09-03T12:21:53.010Z,63.36
2022-09-03T12:26:45.323Z,62.38
2022-09-03T12:29:23.644Z,62.05
2022-09-03T12:31:55.537Z,61.11
2022-09-03T12:34:51.719Z,60.95
2022-09-03T12:38:03.990Z,60.86
2022-09-03T12:40:18.181Z,60.31
2022-09-03T12:42:44.756Z,60.05
2022-09-03T12:45:11.964Z,59.68
2022-09-03T12:47:39.471Z,59.61
2022-09-03T12:50:08.159Z,61.25
2022-09-03T12:52:41.357Z,61.44
2022-09-03T12:55:19.132Z,61.24
2022-09-03T12:57:49.143Z,61.79
2022-09-03T13:00:17.789Z,62.04
2022-09-03T13:02:51.276Z,61.84
2022-09-03T13:05:21.207Z,62.24
2022-09-03T13:07:51.991Z,62.46
2022-09-03T13:10:26.461Z,62.11
2022-09-03T13:12:59.225Z,62.16
2022-09-03T13:15:26.512Z,62.50
2022-09-03T13:18:13.213Z,62.51
2022-09-03T13:20:51.150Z,61.50
2022-09-03T13:23:35.066Z,61.05
2022-09-03T13:26:12.063Z,60.66
2022-09-03T13:28:51.401Z,60.47
2022-09-03T13:31:28.729Z,60.22
2022-09-03T13:34:01.333Z,59.92
2022-09-03T13:36:31.548Z,59.93
2022-09-03T13:39:02.076Z,59.59
2022-09-03T13:41:36.439Z,59.79
2022-09-03T13:44:08.826Z,60.81
2022-09-03T13:46:43.163Z,61.03
2022-09-03T13:49:20.654Z,61.05
2022-09-03T13:51:52.802Z,61.14
2022-09-03T13:54:48.125Z,60.88
2022-09-03T13:57:26.369Z,61.31
2022-09-03T13:59:59.759Z,61.83
2022-09-03T14:02:33.321Z,61.25
2022-09-03T14:05:06.417Z,61.68
2022-09-03T14:07:46.766Z,61.53
2022-09-03T14:10:22.637Z,61.53
2022-09-03T14:13:00.233Z,60.29
2022-09-03T14:15:33.020Z,59.32
2022-09-03T14:18:09.202Z,59.39
2022-09-03T14:20:44.132Z,59.65
2022-09-03T14:23:25.732Z,59.34
2022-09-03T14:25:54.486Z,59.49
2022-09-03T14:28:30.270Z,59.21
2022-09-03T14:31:09.770Z,59.44
2022-09-03T14:33:44.349Z,59.62
2022-09-03T14:36:21.902Z,60.36
2022-09-03T14:39:00.993Z,60.57
2022-09-03T14:41:54.205Z,60.90
2022-09-03T14:44:33.829Z,60.67
2022-09-03T14:47:13.862Z,60.47
2022-09-03T14:49:53.719Z,61.12
2022-09-03T14:52:44.961Z,61.03
2022-09-03T14:55:25.522Z,60.80
2022-09-03T14:58:14.306Z,61.50
2022-09-03T15:00:50.116Z,61.61
2022-09-03T15:03:35.801Z,60.46
2022-09-03T15:06:07.361Z,59.00
2022-09-03T15:08:48.294Z,59.13
2022-09-03T15:11:18.429Z,59.52
2022-09-03T15:13:53.263Z,59.29
2022-09-03T15:16:34.699Z,59.11
2022-09-03T15:19:12.068Z,59.08
2022-09-03T15:21:54.433Z,58.91
2022-09-03T15:24:31.122Z,58.76
2022-09-03T15:27:10.884Z,59.29
2022-09-03T15:29:49.436Z,58.97
2022-09-03T15:32:29.126Z,59.13
2022-09-03T15:35:04.298Z,59.07
2022-09-03T15:37:38.981Z,59.15
2022-09-03T15:40:10.341Z,59.05
2022-09-03T15:42:37.355Z,58.31
2022-09-03T15:45:15.684Z,58.46
2022-09-03T15:47:54.058Z,58.60
2022-09-03T15:50:35.227Z,59.48
2022-09-03T15:53:06.522Z,59.26
2022-09-03T15:55:36.799Z,58.61
2022-09-03T15:58:19.062Z,58.16
2022-09-03T16:00:51.197Z,58.34
2022-09-03T16:03:31.685Z,58.41
2022-09-03T16:06:06.005Z,58.41
2022-09-03T16:08:41.656Z,58.33
2022-09-03T16:11:13.078Z,58.15
2022-09-03T16:13:50.454Z,57.97
2022-09-03T16:16:24.939Z,57.94
2022-09-03T16:19:05.293Z,57.78
2022-09-03T16:21:38.457Z,57.33
2022-09-03T16:24:13.647Z,57.57
2022-09-03T16:26:44.377Z,57.01
2022-09-03T16:29:13.505Z,56.78
2022-09-03T16:31:51.675Z,57.00
2022-09-03T16:34:28.893Z,57.13
2022-09-03T16:37:08.518Z,57.26
2022-09-03T16:39:46.730Z,57.40
2022-09-03T16:42:25.528Z,57.83
2022-09-03T16:45:03.290Z,58.58
2022-09-03T16:47:42.941Z,57.33
2022-09-03T16:50:25.653Z,56.90
2022-09-03T16:53:04.679Z,57.09
2022-09-03T16:55:46.849Z,57.52
2022-09-03T16:58:21.377Z,57.22
2022-09-03T17:01:03.852Z,57.18
2022-09-03T17:03:56.580Z,57.00
2022-09-03T17:06:35.932Z,57.06
2022-09-03T17:09:12.535Z,56.75
2022-09-03T17:11:48.486Z,56.39
2022-09-03T17:14:41.343Z,56.11
2022-09-03T17:17:20.815Z,55.56
2022-09-03T17:19:54.984Z,55.68
2022-09-03T17:22:36.050Z,55.51
2022-09-03T17:25:04.745Z,55.58
2022-09-03T17:27:44.514Z,55.34
2022-09-03T17:30:18.301Z,55.21
2022-09-03T17:32:51.022Z,56.07
2022-09-03T17:35:37.936Z,57.24
2022-09-03T17:38:18.969Z,57.12
2022-09-03T17:41:03.830Z,56.70
2022-09-03T17:43:40.615Z,56.84
2022-09-03T17:46:18.332Z,56.86
2022-09-03T17:48:50.218Z,56.68
2022-09-03T17:51:35.709Z,56.46
2022-09-03T17:54:08.380Z,56.55
2022-09-03T17:56:45.298Z,56.36
2022-09-03T17:59:19.533Z,56.20
2022-09-03T18:01:52.361Z,55.50
2022-09-03T18:04:34.127Z,55.42
2022-09-03T18:07:10.767Z,55.54
2022-09-03T18:09:42.669Z,55.54
2022-09-03T18:12:14.389Z,55.58
2022-09-03T18:14:50.485Z,55.64
2022-09-03T18:17:26.814Z,55.76
2022-09-03T18:20:00.326Z,55.78
2022-09-03T18:22:35.658Z,55.97
2022-09-03T18:25:02.977Z,56.97
2022-09-03T18:27:36.241Z,56.74
2022-09-03T18:30:06.382Z,56.32
2022-09-03T18:32:33.199Z,56.31
2022-09-03T18:34:59.745Z,56.28
2022-09-03T18:37:28.577Z,56.18
2022-09-03T18:39:55.612Z,56.07
2022-09-03T18:42:28.257Z,55.91
2022-09-03T18:45:21.007Z,55.72
2022-09-03T18:48:06.077Z,55.24
2022-09-03T18:50:46.865Z,55.19
2022-09-03T18:53:29.525Z,55.07
2022-09-03T18:56:08.824Z,54.91
2022-09-03T18:58:46.440Z,55.04
2022-09-03T19:01:30.688Z,54.80
2022-09-03T19:04:11.560Z,54.71
2022-09-03T19:06:47.935Z,54.91
2022-09-03T19:09:29.917Z,55.43
2022-09-03T19:12:12.536Z,56.22
2022-09-03T19:14:47.968Z,55.49
2022-09-03T19:17:26.211Z,55.40
2022-09-03T19:20:04.830Z,55.45
2022-09-03T19:22:34.724Z,55.33
2022-09-03T19:25:05.055Z,55.29
2022-09-03T19:27:53.414Z,55.48
2022-09-03T19:30:29.405Z,55.20
2022-09-03T19:33:09.298Z,54.82
2022-09-03T19:35:47.509Z,54.76
2022-09-03T19:38:25.379Z,54.82
2022-09-03T19:41:01.207Z,54.78
2022-09-03T19:43:39.518Z,54.82
2022-09-03T19:46:12.540Z,54.81
2022-09-03T19:48:53.061Z,54.88
2022-09-03T19:51:25.701Z,54.86
2022-09-03T19:53:52.612Z,54.97
2022-09-03T19:56:25.678Z,55.04
2022-09-03T19:58:56.432Z,55.57
2022-09-03T20:01:29.502Z,54.85
2022-09-03T20:03:58.546Z,54.82
2022-09-03T20:06:25.057Z,55.06
2022-09-03T20:08:52.490Z,55.03
2022-09-03T20:11:23.142Z,54.95
2022-09-03T20:13:49.985Z,55.04
2022-09-03T20:16:23.233Z,54.73
2022-09-03T20:19:01.793Z,54.43
2022-09-03T20:21:35.306Z,54.51
2022-09-03T20:24:18.829Z,54.30
2022-09-03T20:26:58.821Z,54.32
2022-09-03T20:29:40.011Z,54.50
2022-09-03T20:32:14.307Z,54.51
2022-09-03T20:34:49.856Z,54.57
2022-09-03T20:37:26.106Z,54.23
2022-09-03T20:40:08.510Z,54.48
2022-09-03T20:42:52.152Z,54.91
2022-09-03T20:45:24.395Z,54.49
2022-09-03T20:48:06.904Z,54.82
2022-09-03T20:50:44.086Z,54.84
2022-09-03T20:53:28.542Z,54.80
2022-09-03T20:56:00.439Z,54.68
2022-09-03T20:58:38.748Z,54.71
2022-09-03T21:01:07.959Z,54.54
2022-09-03T21:03:44.004Z,54.00
2022-09-03T21:06:24.346Z,54.14
2022-09-03T21:09:03.270Z,54.13
2022-09-03T21:11:39.709Z,53.91
2022-09-03T21:14:18.821Z,54.09
2022-09-03T21:16:56.340Z,54.14
2022-09-03T21:19:38.344Z,54.16
2022-09-03T21:22:13.425Z,54.37
2022-09-03T21:24:47.197Z,54.24
2022-09-03T21:27:15.431Z,54.33
2022-09-03T21:29:47.447Z,54.36
2022-09-03T21:32:18.812Z,54.30
2022-09-03T21:34:55.653Z,54.47
2022-09-03T21:37:23.864Z,54.64
2022-09-03T21:39:53.636Z,54.54
2022-09-03T21:42:26.867Z,54.58
2022-09-03T21:44:59.727Z,54.21
2022-09-03T21:47:28.001Z,53.96
2022-09-03T21:50:02.641Z,53.98
2022-09-03T21:52:37.245Z,53.56
2022-09-03T21:55:21.105Z,53.88
2022-09-03T21:57:59.884Z,54.01
2022-09-03T22:00:28.664Z,53.92
2022-09-03T22:02:55.459Z,54.07
2022-09-03T22:05:22.630Z,54.26
2022-09-03T22:08:02.674Z,54.19
2022-09-03T22:10:32.473Z,54.31
2022-09-03T22:13:09.934Z,53.98
2022-09-03T22:15:38.238Z,53.73
2022-09-03T22:18:10.641Z,54.32
2022-09-03T22:20:37.241Z,54.67
2022-09-03T22:23:08.783Z,54.68
2022-09-03T22:25:46.274Z,54.32
2022-09-03T22:28:22.300Z,54.03
2022-09-03T22:30:57.883Z,53.96
2022-09-03T22:33:32.849Z,54.03
2022-09-03T22:36:09.558Z,54.00
2022-09-03T22:38:53.021Z,54.18
2022-09-03T22:41:33.262Z,54.28
2022-09-03T22:44:11.894Z,54.11
2022-09-03T22:46:49.214Z,54.25
2022-09-03T22:49:28.975Z,54.32
2022-09-03T22:52:10.663Z,54.54
2022-09-03T22:54:51.702Z,53.76
2022-09-03T22:57:20.721Z,54.18
2022-09-03T22:59:56.902Z,54.38
2022-09-03T23:02:27.507Z,54.44
2022-09-03T23:05:02.724Z,54.60
2022-09-03T23:07:32.573Z,54.35
2022-09-03T23:10:04.278Z,54.11
2022-09-03T23:12:37.383Z,54.22
2022-09-03T23:15:04.980Z,54.42
2022-09-03T23:22:37.107Z,54.49
2022-09-03T23:25:09.546Z,54.41
2022-09-03T23:27:41.668Z,54.45
2022-09-03T23:30:08.910Z,54.64
2022-09-03T23:32:36.784Z,54.95
2022-09-03T23:35:09.959Z,54.44
2022-09-03T23:37:48.946Z,54.97
2022-09-03T23:40:27.047Z,54.86
2022-09-03T23:43:13.030Z,55.22
2022-09-03T23:45:46.107Z,55.06
2022-09-03T23:48:28.034Z,54.58
2022-09-03T23:51:03.767Z,54.79
2022-09-03T23:53:40.717Z,54.60
2022-09-03T23:56:24.587Z,54.64
2022-09-03T23:59:03.057Z,54.58
